createdAt,value
2018-09-22T00:01:12.921Z,13.60
2018-09-22T00:03:41.344Z,13.60
2018-09-22T00:06:09.833Z,13.70
2018-09-22T00:08:38.456Z,13.70
2018-09-22T00:11:06.969Z,13.70
2018-09-22T00:13:35.351Z,13.70
2018-09-22T00:16:03.813Z,13.70
2018-09-22T00:18:32.188Z,13.70
2018-09-22T00:21:00.617Z,13.70
2018-09-22T00:23:29.108Z,13.80
2018-09-22T00:25:57.564Z,13.80
2018-09-22T00:28:25.964Z,13.80
2018-09-22T00:30:54.396Z,13.90
2018-09-22T00:33:22.772Z,13.80
2018-09-22T00:35:51.223Z,13.80
2018-09-22T00:38:19.659Z,13.80
2018-09-22T00:40:48.108Z,13.80
2018-09-22T00:43:16.496Z,13.80
2018-09-22T00:45:44.894Z,13.90
2018-09-22T00:48:13.277Z,13.90
2018-09-22T00:50:41.688Z,13.90
2018-09-22T00:53:10.076Z,14.00
2018-09-22T00:55:38.611Z,13.90
2018-09-22T00:58:07.052Z,13.90
2018-09-22T01:00:35.461Z,13.90
2018-09-22T01:03:03.921Z,14.00
2018-09-22T01:05:32.356Z,13.90
2018-09-22T01:08:00.839Z,14.00
2018-09-22T01:10:29.248Z,13.90
2018-09-22T01:12:57.657Z,13.90
2018-09-22T01:15:26.044Z,13.90
2018-09-22T01:17:54.447Z,13.90
2018-09-22T01:20:22.855Z,13.90
2018-09-22T01:22:51.284Z,13.90
2018-09-22T01:25:19.705Z,13.80
2018-09-22T01:27:48.103Z,13.80
2018-09-22T01:30:16.564Z,13.80
2018-09-22T01:32:45.004Z,13.70
2018-09-22T01:35:13.436Z,13.60
2018-09-22T01:37:41.869Z,13.50
2018-09-22T01:40:10.305Z,13.50
2018-09-22T01:42:38.684Z,13.40
2018-09-22T01:45:07.140Z,13.30
2018-09-22T01:47:35.544Z,13.20
2018-09-22T01:50:04.014Z,13.20
2018-09-22T01:52:32.397Z,13.20
2018-09-22T01:55:00.837Z,13.10
2018-09-22T01:57:29.216Z,13.10
2018-09-22T01:59:57.629Z,13.10
2018-09-22T02:02:26.021Z,13.10
2018-09-22T02:04:54.424Z,13.10
2018-09-22T02:07:22.875Z,13.10
2018-09-22T02:09:51.290Z,13.10
2018-09-22T02:12:19.704Z,13.10
2018-09-22T02:14:48.116Z,13.10
2018-09-22T02:17:16.540Z,13.20
2018-09-22T02:19:44.939Z,13.20
2018-09-22T02:22:13.349Z,13.10
2018-09-22T02:24:41.745Z,13.10
2018-09-22T02:27:10.150Z,13.00
2018-09-22T02:29:38.571Z,13.00
2018-09-22T02:32:07.106Z,13.00
2018-09-22T02:34:35.591Z,12.90
2018-09-22T02:37:03.982Z,12.80
2018-09-22T02:39:32.395Z,12.80
2018-09-22T02:42:00.788Z,12.80
2018-09-22T02:44:29.260Z,12.80
2018-09-22T02:46:57.648Z,12.80
2018-09-22T02:49:26.066Z,12.70
2018-09-22T02:51:54.479Z,12.70
2018-09-22T02:54:23.051Z,12.60
2018-09-22T02:56:51.464Z,12.70
2018-09-22T02:59:19.864Z,12.70
2018-09-22T03:01:48.261Z,12.70
2018-09-22T03:04:16.669Z,12.70
2018-09-22T03:06:45.163Z,12.70
2018-09-22T03:09:13.477Z,12.70
2018-09-22T03:11:41.884Z,12.80
2018-09-22T03:14:10.608Z,12.90
2018-09-22T03:16:39.529Z,12.90
2018-09-22T03:19:07.936Z,12.90
2018-09-22T03:21:36.336Z,13.00
2018-09-22T03:24:04.724Z,13.00
2018-09-22T03:26:33.173Z,12.90
2018-09-22T03:29:01.636Z,12.80
2018-09-22T03:31:30.085Z,12.80
2018-09-22T03:33:58.498Z,12.80
2018-09-22T03:36:26.885Z,12.70
2018-09-22T03:38:55.281Z,12.80
2018-09-22T03:41:23.716Z,12.80
2018-09-22T03:43:52.081Z,12.80
2018-09-22T03:46:20.504Z,12.80
2018-09-22T03:48:48.919Z,12.80
2018-09-22T03:51:17.310Z,12.70
2018-09-22T03:53:45.730Z,12.70
2018-09-22T03:56:15.012Z,12.70
2018-09-22T03:58:43.478Z,12.70
2018-09-22T04:01:11.900Z,12.70
2018-09-22T04:03:40.323Z,12.60
2018-09-22T04:06:08.754Z,12.50
2018-09-22T04:08:37.152Z,12.50
2018-09-22T04:11:05.544Z,12.50
2018-09-22T04:13:33.997Z,15.30
2018-09-22T04:16:02.364Z,12.50
2018-09-22T04:18:30.798Z,12.60
2018-09-22T04:20:59.774Z,12.50
2018-09-22T04:23:28.209Z,12.50
2018-09-22T04:25:56.670Z,12.50
2018-09-22T04:28:25.109Z,12.50
2018-09-22T04:30:53.480Z,12.50
2018-09-22T04:33:21.976Z,12.40
2018-09-22T04:35:50.308Z,12.40
2018-09-22T04:38:18.676Z,12.40
2018-09-22T04:40:47.124Z,12.50
2018-09-22T04:43:15.546Z,12.50
2018-09-22T04:45:43.938Z,12.50
2018-09-22T04:48:12.315Z,12.50
2018-09-22T04:50:40.916Z,12.50
2018-09-22T04:53:09.683Z,12.50
2018-09-22T04:55:38.121Z,12.50
2018-09-22T04:58:06.532Z,12.50
2018-09-22T05:00:34.944Z,12.40
2018-09-22T05:03:03.313Z,12.50
2018-09-22T05:05:31.744Z,12.50
2018-09-22T05:08:00.247Z,12.50
2018-09-22T05:10:28.671Z,12.40
2018-09-22T05:12:57.041Z,12.50
2018-09-22T05:18:00.132Z,12.50
2018-09-22T05:20:28.567Z,12.50
2018-09-22T05:22:56.957Z,12.50
2018-09-22T05:25:25.580Z,12.50
2018-09-22T05:27:53.979Z,12.50
2018-09-22T05:30:22.372Z,12.50
2018-09-22T05:32:50.998Z,12.50
2018-09-22T05:35:19.360Z,12.50
2018-09-22T05:37:47.812Z,12.50
2018-09-22T05:40:16.220Z,12.40
2018-09-22T05:42:44.650Z,12.50
2018-09-22T05:45:13.062Z,12.40
2018-09-22T05:47:41.627Z,12.50
2018-09-22T05:50:10.040Z,12.60
2018-09-22T05:52:38.500Z,12.60
2018-09-22T05:55:06.968Z,12.60
2018-09-22T05:57:35.452Z,12.60
2018-09-22T06:00:04.090Z,12.70
2018-09-22T06:02:32.499Z,12.70
2018-09-22T06:05:00.923Z,12.80
2018-09-22T06:07:29.348Z,12.80
2018-09-22T06:09:57.781Z,12.90
2018-09-22T06:12:26.302Z,13.00
2018-09-22T06:14:54.859Z,13.00
2018-09-22T06:17:23.380Z,13.20
2018-09-22T06:19:51.984Z,13.20
2018-09-22T06:22:20.432Z,13.30
2018-09-22T06:24:48.948Z,13.30
2018-09-22T06:27:17.344Z,13.30
2018-09-22T06:29:46.103Z,13.40
2018-09-22T06:32:14.542Z,13.50
2018-09-22T06:34:42.959Z,13.40
2018-09-22T06:37:11.597Z,13.40
2018-09-22T06:39:39.991Z,13.50
2018-09-22T06:42:08.501Z,13.40
2018-09-22T06:44:36.900Z,13.50
2018-09-22T06:47:05.337Z,13.60
2018-09-22T06:49:33.743Z,13.60
2018-09-22T06:52:02.149Z,13.50
2018-09-22T06:54:30.559Z,13.70
2018-09-22T06:56:58.941Z,13.70
2018-09-22T06:59:27.632Z,13.80
2018-09-22T07:01:56.015Z,13.80
2018-09-22T07:04:24.636Z,13.90
2018-09-22T07:06:53.125Z,13.90
2018-09-22T07:09:21.573Z,14.00
2018-09-22T07:11:50.090Z,14.00
2018-09-22T07:14:18.500Z,14.00
2018-09-22T07:16:46.886Z,14.20
2018-09-22T07:19:15.350Z,14.30
2018-09-22T07:21:49.568Z,14.40
2018-09-22T07:24:18.215Z,14.30
2018-09-22T07:26:46.630Z,14.50
2018-09-22T07:29:15.036Z,14.60
2018-09-22T07:31:43.448Z,14.80
2018-09-22T07:34:12.059Z,14.80
2018-09-22T07:36:40.549Z,14.90
2018-09-22T07:39:10.357Z,14.80
2018-09-22T07:41:38.799Z,14.70
2018-09-22T07:44:07.409Z,14.70
2018-09-22T07:46:35.848Z,14.70
2018-09-22T07:49:04.372Z,14.70
2018-09-22T07:51:32.796Z,14.90
2018-09-22T07:54:01.257Z,14.80
2018-09-22T07:56:29.676Z,15.00
2018-09-22T07:58:58.272Z,15.10
2018-09-22T08:01:26.852Z,15.30
2018-09-22T08:03:55.236Z,15.40
2018-09-22T08:06:24.508Z,15.70
2018-09-22T08:08:53.489Z,15.70
2018-09-22T08:11:22.041Z,15.80
2018-09-22T08:13:50.519Z,15.80
2018-09-22T08:16:18.989Z,16.00
2018-09-22T08:18:47.490Z,16.00
2018-09-22T08:21:16.059Z,16.10
2018-09-22T08:23:44.907Z,16.00
2018-09-22T08:26:13.308Z,15.80
2018-09-22T08:28:41.834Z,16.10
2018-09-22T08:31:10.329Z,16.30
2018-09-22T08:33:38.808Z,16.20
2018-09-22T08:36:07.772Z,16.30
2018-09-22T08:38:37.153Z,16.10
2018-09-22T08:41:05.715Z,15.90
2018-09-22T08:43:34.155Z,16.20
2018-09-22T08:46:02.723Z,16.20
2018-09-22T08:48:31.180Z,16.40
2018-09-22T08:50:59.655Z,16.50
2018-09-22T08:53:28.080Z,16.60
2018-09-22T08:55:56.569Z,16.40
2018-09-22T08:58:24.943Z,16.40
2018-09-22T09:00:53.472Z,16.20
2018-09-22T09:03:21.887Z,16.20
2018-09-22T09:05:50.375Z,16.20
2018-09-22T09:08:18.735Z,16.00
2018-09-22T09:10:47.560Z,16.20
2018-09-22T09:13:16.193Z,16.20
2018-09-22T09:15:44.661Z,16.50
2018-09-22T09:18:13.160Z,16.70
2018-09-22T09:20:41.628Z,16.70
2018-09-22T09:23:10.412Z,16.80
2018-09-22T09:25:39.072Z,16.60
2018-09-22T09:28:07.733Z,16.70
2018-09-22T09:30:36.154Z,16.60
2018-09-22T09:33:04.545Z,16.50
2018-09-22T09:35:32.995Z,16.60
2018-09-22T09:38:01.432Z,16.60
2018-09-22T09:40:29.883Z,16.60
2018-09-22T09:42:58.330Z,16.60
2018-09-22T09:45:26.845Z,16.90
2018-09-22T09:47:55.240Z,17.00
2018-09-22T09:50:23.721Z,17.30
2018-09-22T09:52:52.252Z,17.60
2018-09-22T09:55:20.733Z,17.50
2018-09-22T09:57:49.128Z,17.70
2018-09-22T10:00:21.772Z,17.80
2018-09-22T10:02:50.192Z,18.10
2018-09-22T10:05:19.074Z,17.80
2018-09-22T10:07:47.549Z,18.10
2018-09-22T10:10:16.033Z,18.30
2018-09-22T10:12:44.484Z,18.30
2018-09-22T10:15:12.995Z,18.80
2018-09-22T10:17:41.428Z,18.90
2018-09-22T10:20:09.988Z,18.60
2018-09-22T10:22:38.374Z,18.40
2018-09-22T10:25:06.776Z,18.60
2018-09-22T10:27:35.232Z,18.50
2018-09-22T10:30:03.727Z,18.50
2018-09-22T10:32:32.148Z,18.60
2018-09-22T10:35:00.569Z,18.30
2018-09-22T10:37:29.042Z,18.20
2018-09-22T10:39:57.447Z,18.30
2018-09-22T10:42:25.881Z,18.30
2018-09-22T10:44:54.257Z,18.20
2018-09-22T10:47:22.728Z,18.30
2018-09-22T10:49:51.236Z,18.00
2018-09-22T10:52:19.713Z,18.10
2018-09-22T10:54:48.198Z,18.00
2018-09-22T10:57:17.339Z,18.00
2018-09-22T10:59:46.041Z,18.10
2018-09-22T11:02:14.465Z,18.00
2018-09-22T11:04:42.924Z,18.00
2018-09-22T11:07:11.312Z,17.80
2018-09-22T11:09:39.799Z,17.90
2018-09-22T11:12:08.325Z,17.80
2018-09-22T11:14:36.785Z,17.50
2018-09-22T11:17:05.208Z,17.40
2018-09-22T11:19:33.686Z,17.20
2018-09-22T11:22:02.110Z,17.20
2018-09-22T11:24:30.525Z,17.20
2018-09-22T11:26:59.030Z,17.30
2018-09-22T11:29:27.536Z,17.40
2018-09-22T11:31:55.981Z,17.40
2018-09-22T11:34:24.597Z,17.50
2018-09-22T11:36:53.020Z,17.60
2018-09-22T11:41:49.766Z,17.70
2018-09-22T11:44:18.208Z,17.70
2018-09-22T11:46:46.733Z,17.70
2018-09-22T11:49:15.174Z,17.80
2018-09-22T11:51:43.755Z,18.00
2018-09-22T11:54:12.304Z,18.10
2018-09-22T11:56:40.751Z,18.30
2018-09-22T11:59:09.240Z,18.50
2018-09-22T12:01:37.740Z,18.60
2018-09-22T12:04:06.193Z,18.70
2018-09-22T12:06:34.739Z,18.70
2018-09-22T12:09:03.108Z,18.90
2018-09-22T12:11:31.504Z,19.00
2018-09-22T12:13:59.961Z,18.60
2018-09-22T12:16:28.340Z,18.50
2018-09-22T12:18:56.819Z,18.30
2018-09-22T12:21:25.216Z,18.40
2018-09-22T12:23:53.615Z,18.50
2018-09-22T12:26:22.069Z,18.50
2018-09-22T12:28:50.488Z,18.50
2018-09-22T12:31:18.933Z,18.70
2018-09-22T12:33:47.716Z,18.50
2018-09-22T12:36:16.405Z,18.70
2018-09-22T12:38:44.853Z,18.90
2018-09-22T12:41:13.436Z,19.00
2018-09-22T12:43:41.858Z,19.00
2018-09-22T12:46:10.370Z,19.00
2018-09-22T12:48:38.813Z,19.00
2018-09-22T12:51:07.300Z,19.10
2018-09-22T12:53:35.771Z,19.30
2018-09-22T12:56:04.208Z,19.40
2018-09-22T12:58:32.604Z,19.50
2018-09-22T13:01:01.124Z,19.50
2018-09-22T13:03:29.607Z,19.30
2018-09-22T13:05:58.072Z,19.10
2018-09-22T13:08:26.882Z,18.90
2018-09-22T13:10:55.172Z,18.60
2018-09-22T13:13:23.627Z,18.30
2018-09-22T13:15:52.037Z,18.30
2018-09-22T13:18:20.501Z,18.30
2018-09-22T13:20:48.981Z,17.90
2018-09-22T13:25:45.636Z,17.40
2018-09-22T13:28:14.122Z,17.00
2018-09-22T13:30:42.540Z,16.10
2018-09-22T13:33:11.044Z,15.40
2018-09-22T13:35:39.461Z,15.40
2018-09-22T13:38:07.936Z,15.10
2018-09-22T13:40:36.432Z,15.00
2018-09-22T13:43:04.849Z,14.90
2018-09-22T13:45:33.301Z,14.90
2018-09-22T13:48:01.745Z,14.80
2018-09-22T13:50:30.224Z,14.80
2018-09-22T13:52:58.670Z,14.60
2018-09-22T13:55:27.050Z,14.30
2018-09-22T13:57:55.481Z,14.20
2018-09-22T14:00:23.899Z,14.20
2018-09-22T14:02:52.326Z,14.00
2018-09-22T14:05:20.762Z,14.00
2018-09-22T14:07:49.226Z,13.90
2018-09-22T14:10:17.844Z,13.90
2018-09-22T14:12:46.146Z,13.80
2018-09-22T14:15:14.557Z,13.80
2018-09-22T14:17:42.974Z,13.80
2018-09-22T14:20:11.404Z,13.80
2018-09-22T14:22:39.879Z,13.80
2018-09-22T14:25:08.296Z,13.70
2018-09-22T14:27:36.936Z,13.80
2018-09-22T14:30:05.437Z,13.80
2018-09-22T14:32:33.933Z,13.90
2018-09-22T14:35:02.454Z,14.00
2018-09-22T14:37:30.899Z,14.20
2018-09-22T14:39:59.336Z,14.30
2018-09-22T14:42:27.756Z,14.30
2018-09-22T14:44:56.304Z,14.20
2018-09-22T14:47:24.788Z,14.20
2018-09-22T14:49:53.229Z,14.10
2018-09-22T14:52:21.735Z,14.10
2018-09-22T14:54:50.134Z,14.10
2018-09-22T14:57:18.532Z,14.10
2018-09-22T14:59:46.973Z,14.10
2018-09-22T15:02:15.395Z,14.00
2018-09-22T15:04:43.832Z,14.10
2018-09-22T15:07:12.263Z,13.90
2018-09-22T15:09:40.824Z,14.00
2018-09-22T15:12:09.290Z,14.00
2018-09-22T15:14:37.893Z,14.00
2018-09-22T15:17:06.563Z,14.00
2018-09-22T15:19:35.097Z,14.00
2018-09-22T15:22:03.526Z,14.00
2018-09-22T15:24:32.009Z,14.00
2018-09-22T15:27:00.402Z,13.80
2018-09-22T15:29:28.860Z,13.80
2018-09-22T15:31:57.270Z,13.80
2018-09-22T15:34:26.178Z,13.80
2018-09-22T15:36:54.766Z,13.80
2018-09-22T15:39:23.093Z,13.90
2018-09-22T15:41:51.656Z,13.80
2018-09-22T15:46:48.244Z,13.80
2018-09-22T15:49:19.481Z,13.80
2018-09-22T15:51:47.911Z,13.80
2018-09-22T15:54:16.399Z,13.80
2018-09-22T15:56:44.820Z,13.70
2018-09-22T15:59:13.544Z,13.70
2018-09-22T16:01:41.956Z,13.70
2018-09-22T16:04:10.912Z,13.70
2018-09-22T16:06:39.399Z,13.70
2018-09-22T16:09:09.121Z,13.70
2018-09-22T16:11:37.678Z,13.60
2018-09-22T16:14:06.488Z,13.60
2018-09-22T16:16:35.162Z,13.60
2018-09-22T16:19:03.989Z,13.60
2018-09-22T16:21:32.743Z,13.60
2018-09-22T16:24:01.732Z,13.60
2018-09-22T16:26:31.840Z,13.60
2018-09-22T16:29:00.362Z,13.50
2018-09-22T16:31:28.774Z,13.40
2018-09-22T16:33:57.189Z,13.40
2018-09-22T16:36:25.616Z,13.50
2018-09-22T16:38:54.003Z,13.50
2018-09-22T16:41:22.452Z,13.50
2018-09-22T16:43:50.881Z,13.50
2018-09-22T16:46:19.562Z,13.30
2018-09-22T16:48:48.097Z,13.30
2018-09-22T16:51:16.496Z,13.30
2018-09-22T16:53:45.002Z,13.30
2018-09-22T16:56:14.019Z,13.20
2018-09-22T16:58:42.678Z,13.20
2018-09-22T17:01:11.098Z,13.20
2018-09-22T17:03:39.595Z,13.20
2018-09-22T17:06:08.148Z,13.20
2018-09-22T17:08:36.552Z,13.30
2018-09-22T17:11:05.013Z,13.20
2018-09-22T17:13:33.617Z,13.20
2018-09-22T17:16:02.116Z,13.20
2018-09-22T17:18:30.694Z,13.20
2018-09-22T17:21:00.765Z,13.30
2018-09-22T17:23:29.223Z,13.20
2018-09-22T17:25:57.738Z,13.20
2018-09-22T17:28:26.192Z,13.10
2018-09-22T17:30:54.683Z,13.10
2018-09-22T17:33:23.187Z,13.10
2018-09-22T17:35:51.604Z,13.00
2018-09-22T17:38:20.042Z,13.00
2018-09-22T17:40:48.461Z,13.00
2018-09-22T17:43:16.986Z,13.00
2018-09-22T17:45:45.357Z,12.90
2018-09-22T17:48:13.799Z,12.80
2018-09-22T17:50:42.223Z,12.80
2018-09-22T17:53:10.704Z,12.80
2018-09-22T17:55:39.237Z,12.80
2018-09-22T17:58:07.640Z,12.80
2018-09-22T18:00:36.055Z,12.80
2018-09-22T18:03:04.615Z,12.70
2018-09-22T18:05:33.043Z,12.80
2018-09-22T18:08:01.472Z,12.70
2018-09-22T18:10:30.003Z,12.80
2018-09-22T18:12:58.427Z,12.70
2018-09-22T18:15:26.807Z,12.70
2018-09-22T18:17:55.397Z,12.70
2018-09-22T18:20:23.874Z,12.70
2018-09-22T18:22:52.321Z,12.70
2018-09-22T18:25:20.776Z,12.70
2018-09-22T18:27:49.329Z,12.70
2018-09-22T18:30:17.852Z,12.70
2018-09-22T18:32:46.313Z,12.70
2018-09-22T18:35:14.749Z,12.60
2018-09-22T18:37:43.180Z,12.70
2018-09-22T18:40:11.616Z,12.70
2018-09-22T18:42:40.017Z,12.70
2018-09-22T18:45:10.215Z,12.60
2018-09-22T18:47:38.633Z,12.70
2018-09-22T18:50:07.169Z,12.70
2018-09-22T18:52:35.661Z,12.70
2018-09-22T18:55:04.144Z,12.60
2018-09-22T18:57:32.616Z,12.60
2018-09-22T19:00:01.011Z,12.50
2018-09-22T19:02:29.777Z,12.50
2018-09-22T19:04:58.241Z,12.50
2018-09-22T19:07:26.776Z,12.50
2018-09-22T19:09:55.201Z,12.50
2018-09-22T19:15:57.976Z,12.50
2018-09-22T19:18:31.815Z,12.50
2018-09-22T19:21:12.680Z,12.50
2018-09-22T19:23:44.817Z,12.50
2018-09-22T19:26:24.428Z,12.40
2018-09-22T19:31:32.284Z,12.40
2018-09-22T19:34:08.254Z,12.40
2018-09-22T19:36:39.545Z,12.40
2018-09-22T19:39:20.019Z,12.30
2018-09-22T19:41:58.887Z,12.30
2018-09-22T19:44:40.665Z,12.30
2018-09-22T19:47:16.025Z,12.30
2018-09-22T19:49:48.280Z,12.30
2018-09-22T19:52:20.457Z,12.30
2018-09-22T19:54:48.932Z,12.30
2018-09-22T19:57:17.396Z,12.30
2018-09-22T19:59:45.903Z,12.30
2018-09-22T20:02:14.384Z,12.20
2018-09-22T20:04:42.842Z,12.20
2018-09-22T20:07:11.291Z,12.30
2018-09-22T20:09:39.796Z,11.90
2018-09-22T20:12:08.325Z,12.30
2018-09-22T20:14:36.911Z,12.30
2018-09-22T20:17:05.327Z,12.20
2018-09-22T20:19:33.869Z,12.30
2018-09-22T20:22:02.296Z,12.20
2018-09-22T20:24:30.712Z,12.30
2018-09-22T20:26:59.198Z,12.30
2018-09-22T20:29:27.641Z,12.20
2018-09-22T20:34:24.632Z,12.20
2018-09-22T20:36:53.873Z,12.20
2018-09-22T20:39:22.305Z,12.20
2018-09-22T20:41:50.728Z,12.20
2018-09-22T20:44:19.181Z,12.20
2018-09-22T20:46:47.559Z,12.20
2018-09-22T20:49:16.029Z,12.20
2018-09-22T20:51:44.483Z,12.20
2018-09-22T20:54:12.953Z,12.20
2018-09-22T20:56:41.298Z,12.20
2018-09-22T20:59:09.697Z,12.10
2018-09-22T21:01:38.141Z,12.10
2018-09-22T21:04:06.684Z,12.10
2018-09-22T21:06:35.184Z,12.10
2018-09-22T21:09:04.309Z,12.10
2018-09-22T21:11:33.016Z,12.10
2018-09-22T21:14:01.429Z,12.10
2018-09-22T21:16:29.897Z,12.10
2018-09-22T21:18:58.294Z,12.10
2018-09-22T21:21:26.772Z,12.10
2018-09-22T21:23:55.210Z,12.10
2018-09-22T21:26:23.964Z,12.10
2018-09-22T21:28:52.366Z,12.10
2018-09-22T21:31:20.769Z,12.00
2018-09-22T21:33:49.304Z,12.10
2018-09-22T21:36:17.743Z,12.00
2018-09-22T21:38:46.190Z,12.10
2018-09-22T21:41:15.004Z,12.10
2018-09-22T21:43:43.428Z,12.10
2018-09-22T21:46:11.870Z,12.10
2018-09-22T21:48:40.496Z,12.10
2018-09-22T21:51:08.917Z,12.10
2018-09-22T21:53:37.453Z,12.10
2018-09-22T21:56:05.500Z,12.00
2018-09-22T21:58:34.439Z,12.00
2018-09-22T22:01:02.921Z,12.00
2018-09-22T22:03:31.357Z,12.00
2018-09-22T22:05:59.765Z,12.00
2018-09-22T22:08:28.208Z,12.00
2018-09-22T22:10:56.684Z,12.00
2018-09-22T22:13:25.153Z,12.00
2018-09-22T22:15:53.573Z,12.00
2018-09-22T22:18:22.006Z,11.90
2018-09-22T22:20:50.462Z,11.90
2018-09-22T22:23:18.864Z,12.00
2018-09-22T22:25:47.273Z,12.00
2018-09-22T22:28:15.676Z,12.00
2018-09-22T22:30:44.133Z,12.00
2018-09-22T22:33:12.611Z,11.90
2018-09-22T22:35:41.033Z,12.00
2018-09-22T22:38:09.448Z,12.00
2018-09-22T22:40:38.783Z,11.90
2018-09-22T22:43:07.335Z,11.90
2018-09-22T22:45:35.889Z,11.90
2018-09-22T22:48:04.337Z,11.90
2018-09-22T22:50:32.761Z,11.80
2018-09-22T22:53:01.160Z,11.80
2018-09-22T22:55:29.604Z,11.80
2018-09-22T22:57:58.080Z,11.90
2018-09-22T23:00:26.481Z,11.80
2018-09-22T23:02:54.878Z,11.90
2018-09-22T23:05:23.289Z,11.90
2018-09-22T23:07:52.212Z,11.90
2018-09-22T23:10:20.640Z,11.90
2018-09-22T23:12:49.096Z,11.80
2018-09-22T23:15:17.533Z,11.80
2018-09-22T23:17:45.960Z,11.80
2018-09-22T23:20:14.516Z,11.80
2018-09-22T23:22:42.974Z,11.80
2018-09-22T23:25:11.380Z,11.80
2018-09-22T23:27:39.870Z,11.80
2018-09-22T23:30:08.331Z,11.80
2018-09-22T23:32:36.820Z,11.80
2018-09-22T23:35:05.361Z,11.90
2018-09-22T23:37:33.776Z,11.90
2018-09-22T23:40:02.238Z,11.80
2018-09-22T23:42:31.692Z,11.80
2018-09-22T23:45:00.109Z,11.90
2018-09-22T23:47:28.569Z,11.90
2018-09-22T23:49:56.965Z,11.80
2018-09-22T23:52:25.360Z,11.90
2018-09-22T23:54:53.751Z,11.90
2018-09-22T23:57:22.252Z,11.90
2018-09-22T23:59:50.640Z,11.90
